Harrison, Arkansas
Current Conditions -  °F | °C
As of 9:53 AM on Saturday 25 Oct 2014 (Local Time) from KHRO Reporting Station
Clear Clear  
Wind Chill: 73°   Ceiling: Unl
Heat Index: 73°   Visibility: 10mi
Dew Point: 60°   Wind: 10mph
Humidity: 64%   Direction: 270°W
Pressure: 30.11"   Gusts: NA
Location:  36.23°N, 93.11°W
Report Text: KHRO 251453Z AUTO 27009KT 10SM CLR 23/16 A3011 RMK AO2 SLP186 T02280156 53008
Loading
Personal Weather Stations






























Interactive Weather Map
Tropical Storm Tracking
New forecast layout! Learn more

10-Day Weather Forecast

Advertisements
Track Severe Weather on mobile